Terminal Aerodrome Forecast
Issued by NWS Mt. Holly, NJ

Home | Current Version | Previous Version | Text Only | Print | Product List | Glossary On
Versions: 1 2 3 4 5 6 7 8 9 10 11 12 13 14 15 16 17 18 19 20 21
000
FTAK31 PANC 301126
TAFABE
TAF
PABE 301126Z 3012/0112 14011KT P6SM SCT030 BKN060
     FM302100 14017KT P6SM VCSH BKN035
     FM010500 12021G29KT P6SM -RA BKN040 WS020/13058KT=

USA.gov is the U.S. government's official web portal to all federal, state and local government web resources and services.